Time;durP1;ratioP1;P1;durP2;ratioP2;P2;SDS_P1;SDS_P2;PMS_P1;PMS_P2;Temp;Humidity;BMP_temperature;BMP_pressure;BME280_temperature;BME280_humidity;BME280_pressure;Samples;Min_cycle;Max_cycle;Signal;HPM_P1;HPM_P2
2022/07/26 00:01:24;;;;;;;1.57;1.37;;;28.60;47.10;;;-142.21;42.68;112049.66;5059289;28;20291;-74
2022/07/26 00:03:52;;;;;;;1.47;1.37;;;28.60;47.20;;;-142.21;43.00;112049.66;5061384;28;20643;-75
2022/07/26 00:06:20;;;;;;;1.50;1.30;;;28.60;47.20;;;-142.21;43.17;112049.66;5053336;28;20236;-75
2022/07/26 00:08:48;;;;;;;1.60;1.50;;;28.60;47.30;;;-142.21;42.98;112049.66;5062408;28;20583;-75
2022/07/26 00:11:16;;;;;;;2.13;1.50;;;28.60;47.10;;;-142.21;43.47;112049.66;5065445;28;20231;-75
2022/07/26 00:13:44;;;;;;;1.60;1.50;;;28.60;47.20;;;-142.21;42.98;112049.66;5070085;28;20222;-75
2022/07/26 00:16:11;;;;;;;2.13;1.50;;;28.60;47.20;;;-142.21;42.78;112049.66;5077677;28;20243;-76
2022/07/26 00:18:39;;;;;;;3.97;1.33;;;28.60;47.00;;;-142.21;42.74;112049.66;5056350;28;20200;-75
2022/07/26 00:21:06;;;;;;;2.73;1.60;;;28.60;46.80;;;-142.21;42.84;112049.66;5071816;28;20221;-74
2022/07/26 00:23:34;;;;;;;1.87;1.17;;;28.60;46.80;;;-142.21;42.96;112049.66;5067246;28;20202;-75
2022/07/26 00:26:01;;;;;;;2.00;1.50;;;28.50;46.90;;;-142.21;43.37;112049.66;5052483;28;20211;-74
2022/07/26 00:28:29;;;;;;;1.53;1.43;;;28.40;47.10;;;-142.21;43.30;112049.66;5055053;28;20224;-74
2022/07/26 00:30:56;;;;;;;2.80;1.40;;;28.50;47.40;;;-142.21;43.66;112049.66;5052113;28;20746;-75
2022/07/26 00:33:24;;;;;;;2.07;1.53;;;28.50;47.60;;;-142.21;44.06;112049.66;5052931;28;20227;-75
2022/07/26 00:35:51;;;;;;;1.60;1.30;;;28.40;47.70;;;-142.21;44.16;112049.66;5069814;28;20659;-74
2022/07/26 00:38:18;;;;;;;1.73;1.37;;;28.50;47.70;;;-142.21;44.89;112049.66;5061130;28;20207;-75
2022/07/26 00:40:45;;;;;;;2.03;1.43;;;28.40;48.00;;;-142.21;45.18;112049.66;5056040;28;20200;-75
2022/07/26 00:43:12;;;;;;;2.00;1.50;;;28.40;48.10;;;-142.21;44.33;112049.66;5069957;28;20212;-75
2022/07/26 00:45:41;;;;;;;5.83;1.50;;;28.40;47.90;;;-142.21;44.97;112049.66;5055263;28;20289;-77
2022/07/26 00:48:08;;;;;;;1.30;1.20;;;28.40;48.10;;;-142.21;45.21;112049.66;5057945;28;20220;-74
2022/07/26 00:50:36;;;;;;;1.43;1.33;;;28.40;48.10;;;-142.21;45.47;112049.66;5051673;28;20211;-75
2022/07/26 00:53:03;;;;;;;1.20;1.10;;;28.40;48.10;;;-142.21;45.68;112049.66;5068724;28;20233;-75
2022/07/26 00:55:31;;;;;;;1.63;1.40;;;28.40;48.30;;;-142.21;45.42;112049.66;5062661;28;20278;-75
2022/07/26 00:58:00;;;;;;;1.47;1.10;;;28.40;48.40;;;-142.21;45.90;112049.66;5053304;28;20221;-74
2022/07/26 01:00:28;;;;;;;1.40;1.30;;;28.30;48.40;;;-142.21;45.98;112049.66;5063074;28;20224;-75
2022/07/26 01:02:59;;;;;;;1.60;1.50;;;28.30;48.60;;;-142.21;46.22;112049.66;5057003;28;20190;-75
2022/07/26 01:05:27;;;;;;;1.27;1.13;;;28.30;48.70;;;-142.21;47.01;112049.66;5051534;28;20287;-75
2022/07/26 01:07:55;;;;;;;2.83;1.40;;;28.20;48.90;;;-142.21;47.00;112049.66;5068292;28;20609;-74
2022/07/26 01:10:22;;;;;;;1.90;1.13;;;28.10;49.10;;;-142.21;47.96;112049.66;5012127;28;20205;-75
2022/07/26 01:12:50;;;;;;;3.27;1.37;;;28.10;49.30;;;-142.21;48.21;112049.66;5013310;28;20231;-75
2022/07/26 01:15:20;;;;;;;2.30;1.43;;;28.10;50.10;;;-142.21;49.78;112049.66;5017714;28;20557;-74
2022/07/26 01:17:47;;;;;;;1.43;1.33;;;28.00;49.90;;;-142.21;50.42;112049.66;5020862;28;20260;-74
2022/07/26 01:20:17;;;;;;;2.47;1.30;;;27.90;50.20;;;-142.21;51.30;112049.66;5018047;28;20233;-74
2022/07/26 01:22:45;;;;;;;1.20;1.10;;;27.90;50.60;;;-142.21;52.23;112049.66;5018055;28;20203;-74
2022/07/26 01:25:12;;;;;;;1.27;1.17;;;27.80;50.90;;;-142.21;53.50;112049.66;5015729;28;20303;-75
2022/07/26 01:27:40;;;;;;;1.40;1.30;;;27.80;51.20;;;-142.21;54.57;112049.66;5028548;28;20610;-75
2022/07/26 01:30:11;;;;;;;1.47;1.30;;;27.70;51.70;;;-142.21;58.65;112049.66;5028057;28;20562;-75
2022/07/26 01:32:38;;;;;;;1.50;1.40;;;27.70;52.60;;;-142.21;57.36;112049.66;5032642;28;20295;-74
2022/07/26 01:35:07;;;;;;;2.80;1.30;;;27.60;52.60;;;-142.21;59.86;112049.66;5028268;28;20234;-74
2022/07/26 01:37:34;;;;;;;2.10;1.27;;;27.50;52.90;;;-142.21;62.11;112049.66;5013285;28;20203;-73
2022/07/26 01:40:04;;;;;;;1.90;1.07;;;27.50;53.30;;;-142.21;64.02;112049.66;5019106;28;20303;-74
2022/07/26 01:42:31;;;;;;;1.53;1.30;;;27.40;54.10;;;-142.21;65.63;112049.66;5030692;28;20208;-75
2022/07/26 01:44:59;;;;;;;2.10;1.30;;;27.40;54.50;;;-142.21;68.92;112049.66;5034206;28;20206;-75
2022/07/26 01:47:26;;;;;;;1.87;1.57;;;27.30;54.80;;;-142.21;68.62;112049.66;5028339;28;20231;-74
2022/07/26 01:49:54;;;;;;;2.67;1.50;;;27.10;55.00;;;-142.21;69.35;112049.66;5016314;28;20207;-74
2022/07/26 01:52:21;;;;;;;1.10;1.00;;;27.00;55.50;;;-142.21;70.28;112049.66;5015793;28;20207;-75
2022/07/26 01:54:48;;;;;;;1.50;1.40;;;26.90;55.70;;;-142.21;71.16;112049.66;5034479;28;20246;-75
2022/07/26 01:57:17;;;;;;;1.70;1.20;;;26.90;55.90;;;-142.21;70.29;112049.66;5024622;28;20206;-75
2022/07/26 01:59:44;;;;;;;2.33;1.60;;;26.80;56.00;;;-142.21;71.34;112049.66;5026882;28;20199;-75
2022/07/26 02:02:11;;;;;;;1.30;1.10;;;26.80;56.40;;;-142.21;71.88;112049.66;5017116;28;20652;-74
2022/07/26 02:07:30;;;;;;;2.37;1.40;;;26.80;56.80;;;-142.21;70.73;112049.66;5012142;28;20203;-74
2022/07/26 02:09:59;;;;;;;1.40;1.30;;;26.80;56.40;;;-142.21;69.99;112049.66;5055368;28;20724;-75
2022/07/26 02:12:27;;;;;;;1.40;1.30;;;26.80;56.30;;;-142.21;68.94;112049.66;5069776;28;20301;-74
2022/07/26 02:14:55;;;;;;;1.30;1.20;;;26.80;56.00;;;-142.21;69.51;112049.66;5054916;28;20646;-74
2022/07/26 02:17:22;;;;;;;2.20;1.20;;;26.70;56.00;;;-142.21;69.08;112049.66;5063141;28;20631;-74
2022/07/26 02:19:49;;;;;;;2.47;1.47;;;26.60;56.00;;;-142.21;69.70;112049.66;5054660;28;20550;-74
2022/07/26 02:22:17;;;;;;;1.57;1.20;;;26.60;56.30;;;-142.21;68.79;112049.66;5070052;28;20194;-74
2022/07/26 02:24:44;;;;;;;1.87;1.33;;;26.60;56.00;;;-142.21;68.52;112049.66;5060137;28;20197;-74
2022/07/26 02:27:11;;;;;;;1.67;1.53;;;26.60;56.20;;;-142.21;68.17;112049.66;5072834;28;20208;-74
2022/07/26 02:29:40;;;;;;;1.63;1.53;;;26.60;56.00;;;-142.21;67.77;112049.66;5068336;28;20198;-74
2022/07/26 02:32:08;;;;;;;2.20;1.30;;;26.50;56.70;;;-142.21;67.39;112049.66;5062157;28;20563;-74
2022/07/26 02:34:35;;;;;;;1.43;1.10;;;26.40;56.10;;;-142.21;67.71;112049.66;5057773;28;20227;-75
2022/07/26 02:37:02;;;;;;;1.50;1.40;;;26.40;56.00;;;-142.21;67.83;112049.66;5072711;28;20202;-75
2022/07/26 02:39:32;;;;;;;1.40;1.30;;;26.40;56.10;;;-142.21;67.72;112049.66;5062170;28;20220;-73
2022/07/26 02:42:02;;;;;;;2.03;1.20;;;26.40;56.10;;;-142.21;68.14;112049.66;5055373;28;20289;-75
2022/07/26 02:44:30;;;;;;;1.50;1.40;;;26.40;56.10;;;-142.21;67.96;112049.66;5059449;28;20304;-74
2022/07/26 02:46:59;;;;;;;1.10;1.00;;;26.40;56.10;;;-142.21;67.68;112049.66;5057123;28;20664;-74
2022/07/26 02:49:26;;;;;;;1.60;1.33;;;26.30;56.10;;;-142.21;68.39;112049.66;5052915;28;20297;-73
2022/07/26 02:51:53;;;;;;;1.80;1.50;;;26.30;56.20;;;-142.21;68.64;112049.66;5058617;28;20283;-73
2022/07/26 02:54:20;;;;;;;1.40;1.30;;;26.30;56.50;;;-142.21;68.48;112049.66;5067429;28;20702;-74
2022/07/26 02:56:47;;;;;;;1.20;1.10;;;26.20;57.00;;;-142.21;69.30;112049.66;5056693;28;20200;-74
2022/07/26 02:59:14;;;;;;;1.73;1.63;;;26.10;56.70;;;-142.21;68.97;112049.66;5073786;28;20296;-75
2022/07/26 03:01:42;;;;;;;1.30;1.20;;;26.00;57.00;;;-142.21;69.70;112049.66;5071727;28;20201;-74
2022/07/26 03:04:10;;;;;;;1.30;1.03;;;25.90;57.10;;;-142.21;70.04;112049.66;5059953;28;20198;-75
2022/07/26 03:06:37;;;;;;;3.13;1.07;;;25.90;57.30;;;-142.21;69.55;112049.66;5053796;28;20751;-74
2022/07/26 03:09:05;;;;;;;1.10;1.00;;;25.90;57.20;;;-142.21;70.07;112049.66;5070935;28;20272;-74
2022/07/26 03:11:32;;;;;;;2.00;1.33;;;25.80;57.20;;;-142.21;70.60;112049.66;5056875;28;20211;-74
2022/07/26 03:13:59;;;;;;;1.67;1.30;;;25.80;57.70;;;-142.21;71.23;112049.66;5062004;28;20243;-74
2022/07/26 03:16:26;;;;;;;1.50;1.40;;;25.80;57.90;;;-142.21;71.12;112049.66;5069001;28;20308;-73
2022/07/26 03:18:53;;;;;;;1.30;1.20;;;25.70;57.80;;;-142.21;71.24;112049.66;5054921;28;20206;-74
2022/07/26 03:21:24;;;;;;;1.40;1.30;;;25.60;57.80;;;-142.21;71.45;112049.66;5070937;28;20303;-75
2022/07/26 03:23:52;;;;;;;1.90;1.60;;;25.60;57.80;;;-142.21;71.43;112049.66;5055018;28;20269;-75
2022/07/26 03:26:20;;;;;;;1.57;1.47;;;25.60;57.80;;;-142.21;71.30;112049.66;5064207;28;20561;-74
2022/07/26 03:28:47;;;;;;;1.53;1.40;;;25.70;57.80;;;-142.21;71.01;112049.66;5069489;28;20706;-74
2022/07/26 03:31:14;;;;;;;2.23;1.27;;;25.70;57.80;;;-142.21;71.30;112049.66;5062646;28;20214;-74
2022/07/26 03:33:42;;;;;;;1.77;1.63;;;25.70;57.80;;;-142.21;71.28;112049.66;5063136;28;20231;-74
2022/07/26 03:36:10;;;;;;;1.57;1.30;;;25.70;57.80;;;-142.21;71.14;112049.66;5069358;28;20554;-74
2022/07/26 03:38:39;;;;;;;1.83;1.30;;;25.70;57.80;;;-142.21;71.86;112049.66;5065672;28;20221;-74
2022/07/26 03:41:07;;;;;;;1.57;1.47;;;25.60;57.80;;;-142.21;72.42;112049.66;5057544;28;20291;-73
2022/07/26 03:43:34;;;;;;;2.27;1.70;;;25.50;58.10;;;-142.21;73.15;112049.66;5066375;28;20202;-74
2022/07/26 03:46:01;;;;;;;1.93;1.77;;;25.30;58.50;;;-142.21;73.69;112049.66;5055883;28;20487;-74
2022/07/26 03:48:30;;;;;;;2.03;1.60;;;25.30;58.90;;;-142.21;73.65;112049.66;5052427;28;20207;-74
2022/07/26 03:50:57;;;;;;;1.83;1.60;;;25.30;58.70;;;-142.21;73.49;112049.66;5072017;28;20201;-73
2022/07/26 03:53:24;;;;;;;2.20;1.33;;;25.30;58.70;;;-142.21;74.20;112049.66;5063624;28;20221;-74
2022/07/26 03:58:38;;;;;;;1.33;1.23;;;25.20;59.00;;;-142.21;74.19;112049.66;5055405;28;20343;-73
2022/07/26 04:01:05;;;;;;;1.53;1.43;;;25.30;59.00;;;-142.21;74.16;112049.66;5068132;28;20213;-73
2022/07/26 04:03:32;;;;;;;1.73;1.57;;;25.30;58.90;;;-142.21;73.97;112049.66;5062179;28;20194;-74
2022/07/26 04:05:59;;;;;;;1.87;1.73;;;25.30;58.80;;;-142.21;73.96;112049.66;5056805;28;20615;-74
2022/07/26 04:08:26;;;;;;;2.17;1.60;;;25.30;58.80;;;-142.21;73.54;112049.66;5068658;28;20685;-74
2022/07/26 04:10:54;;;;;;;1.30;1.20;;;25.30;58.70;;;-142.21;73.86;112049.66;5057872;28;20220;-75
2022/07/26 04:13:23;;;;;;;1.67;1.40;;;25.40;58.80;;;-142.21;73.72;112049.66;5063750;28;20767;-73
2022/07/26 04:15:50;;;;;;;5.00;1.70;;;25.30;58.60;;;-142.21;73.82;112049.66;5069765;28;20209;-73
2022/07/26 04:18:17;;;;;;;1.73;1.43;;;25.40;58.80;;;-142.21;73.66;112049.66;5057453;28;20275;-74
2022/07/26 04:20:45;;;;;;;3.17;1.50;;;25.40;58.70;;;-142.21;73.50;112049.66;5054837;28;20285;-74
2022/07/26 04:23:12;;;;;;;1.83;1.60;;;25.40;58.60;;;-142.21;73.59;112049.66;5065153;28;20209;-74
2022/07/26 04:25:40;;;;;;;1.87;1.60;;;25.30;58.70;;;-142.21;73.53;112049.66;5058202;28;20211;-74
2022/07/26 04:28:09;;;;;;;2.80;1.57;;;25.30;58.60;;;-142.21;74.05;112049.66;5056441;28;20213;-74
2022/07/26 04:30:36;;;;;;;2.10;1.60;;;25.30;58.80;;;-142.21;74.07;112049.66;5063713;28;20206;-74
2022/07/26 04:33:04;;;;;;;2.17;1.50;;;25.20;58.90;;;-142.21;74.21;112049.66;5068694;28;20212;-75
2022/07/26 04:35:31;;;;;;;1.53;1.30;;;25.20;58.90;;;-142.21;73.96;112049.66;5070732;28;20195;-74
2022/07/26 04:37:59;;;;;;;2.13;1.73;;;25.30;58.90;;;-142.21;74.24;112049.66;5069243;28;20208;-74
2022/07/26 04:40:27;;;;;;;2.90;1.87;;;25.30;58.90;;;-142.21;74.34;112049.66;5070844;28;20203;-73
2022/07/26 04:42:55;;;;;;;1.50;1.40;;;25.30;58.90;;;-142.21;74.42;112049.66;5064962;28;20301;-73
2022/07/26 04:45:26;;;;;;;1.50;1.40;;;25.20;59.00;;;-142.21;74.80;112049.66;5052710;28;20206;-74
2022/07/26 04:47:53;;;;;;;4.57;1.80;;;25.20;59.00;;;-142.21;74.41;112049.66;5057464;28;20192;-73
2022/07/26 04:50:22;;;;;;;1.67;1.50;;;25.20;58.90;;;-142.21;74.12;112049.66;5071337;28;20300;-73
2022/07/26 04:52:50;;;;;;;2.23;1.57;;;25.20;59.00;;;-142.21;74.33;112049.66;5058326;28;20210;-74
2022/07/26 04:55:18;;;;;;;3.37;1.77;;;25.10;59.00;;;-142.21;74.52;112049.66;5065012;28;20217;-74
2022/07/26 04:57:47;;;;;;;1.87;1.50;;;25.10;59.00;;;-142.21;74.15;112049.66;5058729;28;20213;-74
2022/07/26 05:00:23;;;;;;;1.97;1.70;;;25.10;58.90;;;-142.21;73.79;112049.66;5069008;28;20211;-73
2022/07/26 05:02:54;;;;;;;2.00;1.70;;;25.10;59.00;;;-142.21;73.78;112049.66;5067253;28;20224;-74
2022/07/26 05:05:22;;;;;;;3.20;2.00;;;25.00;58.80;;;-142.21;73.88;112049.66;5064054;28;20199;-75
2022/07/26 05:07:53;;;;;;;2.10;1.67;;;25.00;58.80;;;-142.21;73.49;112049.66;5060198;28;20282;-73
2022/07/26 05:10:27;;;;;;;2.50;1.80;;;25.10;59.00;;;-142.21;73.46;112049.66;5069401;28;20261;-75
2022/07/26 05:12:54;;;;;;;2.60;1.73;;;25.10;58.80;;;-142.21;73.80;112049.66;5059941;28;20194;-74
2022/07/26 05:15:21;;;;;;;4.07;1.70;;;25.10;58.80;;;-142.21;73.31;112049.66;5066779;28;20221;-74
2022/07/26 05:17:49;;;;;;;1.97;1.80;;;25.10;58.70;;;-142.21;73.11;112049.66;5072051;28;20288;-75
2022/07/26 05:20:18;;;;;;;2.37;1.63;;;25.00;58.60;;;-142.21;73.50;112049.66;5061938;28;20713;-72
2022/07/26 05:22:45;;;;;;;2.60;1.63;;;25.00;58.80;;;-142.21;73.88;112049.66;5065588;28;20251;-74
2022/07/26 05:25:13;;;;;;;1.80;1.60;;;24.90;58.90;;;-142.21;73.62;112049.66;5057259;28;20288;-74
2022/07/26 05:27:40;;;;;;;1.97;1.63;;;25.00;59.00;;;-142.21;72.83;112049.66;5060034;28;20212;-72
2022/07/26 05:30:10;;;;;;;2.53;1.80;;;25.00;58.80;;;-142.21;73.21;112049.66;5056042;28;20206;-74
2022/07/26 05:32:37;;;;;;;1.70;1.60;;;25.00;58.90;;;-142.21;72.72;112049.66;5069020;28;20638;-74
2022/07/26 05:35:06;;;;;;;2.83;1.80;;;25.10;58.80;;;-142.21;72.86;112049.66;5065311;28;20298;-73
2022/07/26 05:37:36;;;;;;;2.77;1.90;;;25.20;58.70;;;-142.21;72.09;112049.66;5056448;28;20209;-75
2022/07/26 05:40:05;;;;;;;1.60;1.50;;;25.10;58.50;;;-142.21;70.48;112049.66;5064653;28;20207;-75
2022/07/26 05:42:32;;;;;;;2.43;1.73;;;25.00;58.00;;;-142.21;71.08;112049.66;5064090;28;20216;-76
2022/07/26 05:44:59;;;;;;;4.80;1.80;;;24.90;59.00;;;-142.21;70.27;112049.66;5055413;28;20284;-75
2022/07/26 05:47:27;;;;;;;3.80;1.70;;;24.90;58.20;;;-142.21;69.63;112049.66;5059583;28;20206;-75
2022/07/26 05:49:54;;;;;;;1.70;1.60;;;24.90;57.90;;;-142.21;69.48;112049.66;5074754;28;20713;-74
2022/07/26 05:52:22;;;;;;;3.50;1.90;;;24.90;57.70;;;-142.21;70.04;112049.66;5070812;28;20233;-75
2022/07/26 05:54:51;;;;;;;1.63;1.40;;;24.90;57.80;;;-142.21;69.37;112049.66;5062271;28;20399;-75
2022/07/26 05:57:18;;;;;;;1.87;1.50;;;25.00;57.70;;;-142.21;68.06;112049.66;5067292;28;20656;-75
2022/07/26 05:59:45;;;;;;;4.30;1.90;;;25.00;57.30;;;-142.21;66.84;112049.66;5057114;28;20292;-75
2022/07/26 06:02:12;;;;;;;3.53;1.70;;;25.00;56.90;;;-142.21;66.04;112049.66;5065969;28;20291;-75
2022/07/26 06:04:40;;;;;;;2.03;1.60;;;25.00;56.80;;;-142.21;65.92;112049.66;5068483;28;20219;-75
2022/07/26 06:07:07;;;;;;;2.43;1.43;;;25.00;56.70;;;-142.21;63.96;112049.66;5071959;28;20291;-76
2022/07/26 06:09:34;;;;;;;2.83;1.43;;;25.00;56.30;;;-142.21;64.53;112049.66;5056435;28;20240;-74
2022/07/26 06:12:04;;;;;;;3.17;1.80;;;24.90;56.30;;;-142.21;63.55;112049.66;5060096;28;20296;-76
2022/07/26 06:14:31;;;;;;;2.87;1.80;;;24.90;55.90;;;-142.21;64.99;112049.66;5067179;28;20216;-75
2022/07/26 06:16:58;;;;;;;4.57;1.97;;;24.70;56.30;;;-142.21;65.54;112049.66;5073037;28;20547;-76
2022/07/26 06:19:25;;;;;;;2.47;1.50;;;24.70;57.20;;;-142.21;66.12;112049.66;5038901;28;20266;-75
2022/07/26 06:21:52;;;;;;;1.83;1.53;;;24.60;56.80;;;-142.21;66.53;112049.66;5071667;28;20200;-76
2022/07/26 06:24:20;;;;;;;2.57;1.70;;;24.60;57.10;;;-142.21;65.93;112049.66;5083388;28;20232;-75
2022/07/26 06:26:49;;;;;;;2.10;1.40;;;24.60;57.30;;;-142.21;65.71;112049.66;5073511;28;20200;-75
2022/07/26 06:29:17;;;;;;;1.20;1.10;;;24.70;56.50;;;-142.21;65.04;112049.66;5056194;28;20198;-75
2022/07/26 06:31:44;;;;;;;3.23;1.63;;;24.70;56.40;;;-142.21;64.21;112049.66;5070397;28;20608;-75
2022/07/26 06:34:11;;;;;;;1.43;1.33;;;24.70;56.10;;;-142.21;63.88;112049.66;5054187;28;20229;-76
2022/07/26 06:36:39;;;;;;;3.23;1.77;;;24.70;56.30;;;-142.21;63.54;112049.66;5053543;28;20297;-72
2022/07/26 06:39:06;;;;;;;2.70;1.60;;;24.60;56.10;;;-142.21;63.64;112049.66;5066856;28;20285;-73
2022/07/26 06:41:33;;;;;;;2.10;1.70;;;24.50;56.10;;;-142.21;63.59;112049.66;5065637;28;20241;-68
2022/07/26 06:44:01;;;;;;;1.43;1.33;;;24.40;56.30;;;-142.21;62.93;112049.66;5069706;28;20300;-75
2022/07/26 06:46:30;;;;;;;2.33;1.60;;;24.40;56.20;;;-142.21;62.79;112049.66;5068018;28;20288;-76
2022/07/26 06:48:57;;;;;;;1.93;1.80;;;24.40;56.10;;;-142.21;62.07;112049.66;5073892;28;20266;-76
2022/07/26 06:51:24;;;;;;;3.00;1.70;;;24.50;56.00;;;-142.21;61.36;112049.66;5061431;28;20233;-76
2022/07/26 06:53:52;;;;;;;3.00;1.47;;;24.60;55.90;;;-142.21;59.96;112049.66;5069726;28;20301;-76
2022/07/26 06:56:19;;;;;;;2.03;1.37;;;24.80;55.30;;;-142.21;58.33;112049.66;5060970;28;20244;-75
2022/07/26 06:58:47;;;;;;;3.10;1.30;;;24.90;54.70;;;-142.21;57.10;112049.66;5057158;28;20212;-76
2022/07/26 07:01:14;;;;;;;1.97;1.20;;;25.00;54.20;;;-142.21;56.92;112049.66;5067843;28;20210;-76
2022/07/26 07:03:44;;;;;;;2.87;1.50;;;25.10;54.10;;;-142.21;55.57;112049.66;5068604;28;20304;-75
2022/07/26 07:06:11;;;;;;;1.70;1.47;;;25.20;53.70;;;-142.21;54.03;112049.66;5062839;28;20255;-75
2022/07/26 07:08:38;;;;;;;1.37;1.27;;;25.30;53.30;;;-142.21;53.31;112049.66;5061321;28;20260;-75
2022/07/26 07:11:06;;;;;;;3.17;1.73;;;25.40;53.20;;;-142.21;52.78;112049.66;5072743;28;20228;-75
2022/07/26 07:13:33;;;;;;;4.27;1.40;;;25.30;52.40;;;-142.21;53.41;112049.66;5057183;28;20268;-76
2022/07/26 07:16:00;;;;;;;2.50;1.20;;;25.30;52.90;;;-142.21;51.27;112049.66;5053613;28;20271;-76
2022/07/26 07:18:27;;;;;;;1.70;1.13;;;25.30;52.00;;;-142.21;50.33;112049.66;5053275;28;20213;-76
2022/07/26 07:20:56;;;;;;;2.03;1.13;;;25.10;51.30;;;-142.21;51.07;112049.66;5059280;28;20207;-76
2022/07/26 07:23:23;;;;;;;1.20;1.10;;;24.90;51.70;;;-142.21;52.44;112049.66;5058690;28;20201;-76
2022/07/26 07:25:50;;;;;;;1.20;1.10;;;24.90;52.20;;;-142.21;53.07;112049.66;5057175;28;20284;-74
2022/07/26 07:28:18;;;;;;;4.50;1.60;;;24.90;52.50;;;-142.21;52.42;112049.66;5073090;28;20299;-75
2022/07/26 07:30:46;;;;;;;3.50;1.60;;;25.10;52.30;;;-142.21;52.37;112049.66;5071651;28;20660;-75
2022/07/26 07:33:13;;;;;;;3.77;1.60;;;25.00;52.30;;;-142.21;51.34;112049.66;5070257;28;20212;-75
2022/07/26 07:35:41;;;;;;;2.10;1.37;;;24.90;51.80;;;-142.21;51.52;112049.66;5068411;28;20228;-75
2022/07/26 07:38:09;;;;;;;1.30;1.20;;;25.10;52.20;;;-142.21;51.45;112049.66;5052745;28;20209;-76
2022/07/26 07:40:37;;;;;;;1.20;1.10;;;25.20;52.00;;;-142.21;48.92;112049.66;5054291;28;20547;-76
2022/07/26 07:43:04;;;;;;;1.17;1.07;;;25.30;51.00;;;-142.21;48.93;112049.66;5061258;28;20288;-75
2022/07/26 07:45:31;;;;;;;1.73;1.17;;;25.20;50.80;;;-142.21;48.94;112049.66;5071718;28;20197;-75
2022/07/26 07:47:58;;;;;;;2.03;1.17;;;25.10;50.90;;;-142.21;49.54;112049.66;5056690;28;20662;-74
2022/07/26 07:50:26;;;;;;;1.33;1.10;;;25.00;51.20;;;-142.21;50.12;112049.66;5054004;28;20202;-76
2022/07/26 07:52:53;;;;;;;1.40;1.10;;;25.10;51.60;;;-142.21;50.15;112049.66;5053611;28;20281;-75
2022/07/26 07:55:22;;;;;;;4.97;1.73;;;25.20;51.90;;;-142.21;49.92;112049.66;5066434;28;20252;-74
2022/07/26 07:57:49;;;;;;;1.23;1.00;;;25.20;51.40;;;-142.21;49.61;112049.66;5050427;28;20212;-77
2022/07/26 08:00:18;;;;;;;1.43;1.27;;;25.40;51.40;;;-142.21;49.03;112049.66;5074105;28;20221;-76
2022/07/26 08:02:46;;;;;;;3.03;1.43;;;25.40;51.00;;;-142.21;49.91;112049.66;5057764;28;20209;-76
2022/07/26 08:05:14;;;;;;;1.33;1.10;;;25.30;51.40;;;-142.21;49.86;112049.66;5051132;28;20251;-75
2022/07/26 08:07:41;;;;;;;1.80;1.20;;;25.30;51.30;;;-142.21;49.41;112049.66;5052223;28;20216;-75
2022/07/26 08:10:10;;;;;;;2.10;1.23;;;25.40;51.30;;;-142.21;48.36;112049.66;5051817;28;20332;-75
2022/07/26 08:12:38;;;;;;;2.30;1.17;;;25.50;50.90;;;-142.21;49.02;112049.66;5017126;28;20316;-75
2022/07/26 08:15:07;;;;;;;2.97;1.40;;;25.50;50.90;;;-142.21;48.54;112049.66;5052504;28;20228;-75
2022/07/26 08:17:35;;;;;;;1.10;1.00;;;25.60;51.50;;;-142.21;49.25;112049.66;5052022;28;20237;-75
2022/07/26 08:20:03;;;;;;;1.50;1.20;;;25.80;51.00;;;-142.21;47.92;112049.66;5052340;28;20205;-74
2022/07/26 08:22:30;;;;;;;0.87;0.87;;;25.90;50.30;;;-142.21;47.69;112049.66;5052164;28;20217;-76
2022/07/26 08:24:59;;;;;;;2.20;1.20;;;26.00;50.30;;;-142.21;47.07;112049.66;5051908;28;20208;-76
2022/07/26 08:27:26;;;;;;;2.70;1.37;;;26.10;50.00;;;-142.21;46.39;112049.66;5056684;28;20212;-75
2022/07/26 08:29:55;;;;;;;1.30;1.20;;;26.20;50.20;;;-142.21;46.77;112049.66;5055674;28;20300;-75
2022/07/26 08:32:22;;;;;;;1.30;1.20;;;26.20;49.90;;;-142.21;46.84;112049.66;5056592;28;20212;-75
2022/07/26 08:34:49;;;;;;;2.30;1.30;;;26.30;50.10;;;-142.21;46.49;112049.66;5055460;28;20226;-75
2022/07/26 08:37:17;;;;;;;1.43;1.17;;;26.30;49.60;;;-142.21;45.18;112049.66;5056160;28;20292;-75
2022/07/26 08:39:44;;;;;;;1.40;1.27;;;26.50;49.10;;;-142.21;45.77;112049.66;5055082;28;20198;-76
2022/07/26 08:42:16;;;;;;;0.77;0.77;;;26.40;49.30;;;-142.21;45.27;112049.66;5056277;28;20213;-74
2022/07/26 08:44:44;;;;;;;1.33;0.70;;;26.50;49.10;;;-142.21;43.74;112049.66;5054499;28;20597;-76
2022/07/26 08:47:16;;;;;;;1.60;0.73;;;26.50;49.00;;;-142.21;43.94;112049.66;5055793;28;20206;-75
2022/07/26 08:49:44;;;;;;;2.30;1.27;;;26.70;48.30;;;-142.21;43.33;112049.66;5055598;28;20197;-75
2022/07/26 08:52:14;;;;;;;2.37;0.90;;;26.90;48.00;;;-142.21;42.49;112049.66;5068029;28;20217;-75
2022/07/26 08:54:45;;;;;;;1.43;1.00;;;27.00;47.50;;;-142.21;42.76;112049.66;5075317;28;20186;-75
2022/07/26 08:57:13;;;;;;;1.67;0.93;;;27.00;47.50;;;-142.21;42.80;112049.66;5076105;28;20300;-76
2022/07/26 08:59:40;;;;;;;1.17;1.00;;;26.90;47.50;;;-142.21;43.08;112049.66;5075079;28;20225;-74
2022/07/26 09:02:11;;;;;;;1.33;0.80;;;27.00;47.60;;;-142.21;41.77;112049.66;5075788;28;20205;-76
2022/07/26 09:04:43;;;;;;;2.00;1.00;;;27.10;47.30;;;-142.21;41.81;112049.66;5075892;28;20190;-74
2022/07/26 09:07:14;;;;;;;3.67;1.10;;;27.20;46.70;;;-142.21;41.50;112049.66;5076043;28;20194;-76
2022/07/26 09:09:59;;;;;;;1.40;1.10;;;27.10;46.40;;;-142.21;42.04;112049.66;5093399;28;20232;-74
2022/07/26 09:12:29;;;;;;;1.97;0.87;;;27.10;46.80;;;-142.21;40.90;112049.66;5077308;28;20204;-76
2022/07/26 09:14:58;;;;;;;1.90;1.40;;;27.10;46.70;;;-142.21;40.55;112049.66;5054855;28;20227;-75
2022/07/26 09:17:39;;;;;;;1.13;0.80;;;27.10;45.80;;;-142.21;40.99;112049.66;5055723;28;20242;-75
2022/07/26 09:20:11;;;;;;;1.60;1.00;;;27.00;46.50;;;-142.21;39.94;112049.66;5055857;28;20260;-75
2022/07/26 09:22:56;;;;;;;1.80;0.97;;;27.10;45.50;;;-142.21;40.33;112049.66;5055311;28;20187;-75
2022/07/26 09:25:25;;;;;;;1.43;1.00;;;26.90;45.70;;;-142.21;40.51;112049.66;5055465;28;20223;-76
2022/07/26 09:27:53;;;;;;;0.80;0.80;;;27.00;46.10;;;-142.21;40.02;112049.66;5056653;28;20197;-74
2022/07/26 09:30:21;;;;;;;1.13;0.90;;;27.10;45.60;;;-142.21;39.44;112049.66;5075649;28;20291;-76
2022/07/26 09:33:01;;;;;;;1.17;0.90;;;27.30;45.30;;;-142.21;39.60;112049.66;5074686;28;20205;-76
2022/07/26 09:35:33;;;;;;;1.00;0.90;;;27.40;45.20;;;-142.21;39.24;112049.66;5074766;28;20300;-75
2022/07/26 09:38:01;;;;;;;0.80;0.80;;;27.60;45.10;;;-142.21;38.60;112049.66;5073461;28;20240;-74
2022/07/26 09:40:35;;;;;;;1.13;0.97;;;27.70;44.70;;;-142.21;38.85;112049.66;5056387;28;20290;-74
2022/07/26 09:43:05;;;;;;;2.03;1.10;;;27.60;44.60;;;-142.21;39.18;112049.66;5054762;28;20277;-76
2022/07/26 09:45:35;;;;;;;1.13;0.90;;;27.70;45.00;;;-142.21;38.56;112049.66;5055991;28;20199;-74
2022/07/26 09:48:04;;;;;;;0.90;0.87;;;27.70;43.70;;;-142.21;38.21;112049.66;5054633;28;20562;-75
2022/07/26 09:50:33;;;;;;;1.23;0.80;;;27.60;44.20;;;-142.21;38.55;112049.66;5054825;28;20736;-74
2022/07/26 09:53:06;;;;;;;0.70;0.70;;;27.80;44.30;;;-142.21;38.48;112049.66;5054222;28;20295;-75
2022/07/26 09:55:35;;;;;;;1.20;0.93;;;28.10;44.20;;;-142.21;37.30;112049.66;5054777;28;20672;-76
2022/07/26 09:58:05;;;;;;;1.23;0.90;;;28.10;42.80;;;-142.21;38.70;112049.66;5053864;28;20312;-76
2022/07/26 10:00:33;;;;;;;1.33;1.00;;;28.00;44.00;;;-142.21;39.01;112049.66;5054723;28;20223;-75
2022/07/26 10:03:01;;;;;;;1.80;0.80;;;28.20;45.20;;;-142.21;38.37;112049.66;5054323;28;20231;-76
2022/07/26 10:05:29;;;;;;;2.50;1.10;;;28.40;44.10;;;-142.21;40.59;112049.66;5054877;28;20589;-74
2022/07/26 10:07:58;;;;;;;1.90;1.10;;;28.60;45.30;;;-142.21;38.17;112049.66;5069970;28;20232;-75
2022/07/26 10:10:31;;;;;;;0.77;0.73;;;28.90;43.90;;;-142.21;36.72;112049.66;5074840;28;20221;-76